createdAt,value
2023-05-12T00:00:11.465Z,100154.28
2023-05-12T00:02:44.554Z,100155.00
2023-05-12T00:05:12.406Z,100149.00
2023-05-12T00:07:40.202Z,100161.00
2023-05-12T00:10:08.859Z,100163.44
2023-05-12T00:12:36.701Z,100161.75
2023-05-12T00:15:07.207Z,100161.00
2023-05-12T00:17:35.071Z,100159.97
2023-05-12T00:20:03.677Z,100155.72
2023-05-12T00:22:31.975Z,100158.22
2023-05-12T00:24:59.823Z,100147.78
2023-05-12T00:27:27.533Z,100156.47
2023-05-12T00:29:55.263Z,100149.56
2023-05-12T00:32:24.370Z,100156.22
2023-05-12T00:34:53.268Z,100150.16
2023-05-12T00:37:21.025Z,100146.50
2023-05-12T00:39:49.182Z,100143.03
2023-05-12T00:42:17.085Z,100150.09
2023-05-12T00:44:45.660Z,100151.03
2023-05-12T00:47:14.544Z,100151.69
2023-05-12T00:49:44.471Z,100144.50
2023-05-12T00:52:12.617Z,100141.78
2023-05-12T00:54:41.851Z,100143.41
2023-05-12T00:57:09.906Z,100139.91
2023-05-12T00:59:38.308Z,100137.44
2023-05-12T01:02:07.533Z,100136.69
2023-05-12T01:04:37.987Z,100136.69
2023-05-12T01:07:11.676Z,100130.47
2023-05-12T01:09:40.059Z,100138.88
2023-05-12T01:12:08.690Z,100139.75
2023-05-12T01:14:37.002Z,100137.28
2023-05-12T01:17:11.195Z,100135.44
2023-05-12T01:19:47.117Z,100141.56
2023-05-12T01:22:18.975Z,100138.97
2023-05-12T01:24:51.512Z,100135.38
2023-05-12T01:27:23.498Z,100137.75
2023-05-12T01:29:54.758Z,100131.44
2023-05-12T01:32:23.362Z,100133.09
2023-05-12T01:34:51.397Z,100134.13
2023-05-12T01:37:20.683Z,100130.00
2023-05-12T01:39:48.637Z,100134.34
2023-05-12T01:42:21.462Z,100128.28
2023-05-12T01:44:51.014Z,100130.00
2023-05-12T01:47:21.401Z,100128.28
2023-05-12T01:49:58.587Z,100126.69
2023-05-12T01:52:26.367Z,100131.13
2023-05-12T01:54:54.700Z,100128.84
2023-05-12T01:57:24.800Z,100132.31
2023-05-12T01:59:56.418Z,100136.75
2023-05-12T02:02:24.466Z,100137.53
2023-05-12T02:04:52.629Z,100129.84
2023-05-12T02:07:20.374Z,100138.66
2023-05-12T02:09:48.556Z,100138.75
2023-05-12T02:12:17.141Z,100139.53
2023-05-12T02:14:46.311Z,100146.94
2023-05-12T02:17:14.391Z,100141.66
2023-05-12T02:19:42.333Z,100146.03
2023-05-12T02:22:13.005Z,100140.88
2023-05-12T02:24:40.948Z,100140.13
2023-05-12T02:27:09.014Z,100142.50
2023-05-12T02:29:37.681Z,100142.25
2023-05-12T02:32:07.943Z,100139.63
2023-05-12T02:34:36.335Z,100144.94
2023-05-12T02:37:04.177Z,100147.31
2023-05-12T02:39:31.974Z,100144.03
2023-05-12T02:41:59.651Z,100143.09
2023-05-12T02:44:28.043Z,100142.97
2023-05-12T02:46:57.922Z,100143.78
2023-05-12T02:49:27.310Z,100141.16
2023-05-12T02:51:55.262Z,100140.41
2023-05-12T02:54:23.029Z,100136.91
2023-05-12T02:56:50.788Z,100136.56
2023-05-12T02:59:18.553Z,100132.97
2023-05-12T03:01:46.201Z,100136.31
2023-05-12T03:04:14.109Z,100137.91
2023-05-12T03:06:43.622Z,100138.78
2023-05-12T03:09:11.608Z,100138.03
2023-05-12T03:11:39.416Z,100132.63
2023-05-12T03:14:07.118Z,100135.25
2023-05-12T03:16:35.286Z,100136.03
2023-05-12T03:19:05.070Z,100134.22
2023-05-12T03:21:33.105Z,100136.16
2023-05-12T03:24:02.194Z,100141.31
2023-05-12T03:26:30.376Z,100143.91
2023-05-12T03:28:58.176Z,100144.75
2023-05-12T03:31:26.605Z,100135.19
2023-05-12T03:33:54.343Z,100137.19
2023-05-12T03:36:22.191Z,100136.31
2023-05-12T03:38:50.143Z,100137.25
2023-05-12T03:41:19.436Z,100143.13
2023-05-12T03:43:47.846Z,100145.75
2023-05-12T03:46:16.843Z,100144.09
2023-05-12T03:48:44.939Z,100141.47
2023-05-12T03:51:14.301Z,100146.69
2023-05-12T03:53:45.680Z,100139.72
2023-05-12T03:56:15.684Z,100138.88
2023-05-12T03:58:46.861Z,100132.13
2023-05-12T04:01:16.641Z,100141.47
2023-05-12T04:03:44.530Z,100129.34
2023-05-12T04:06:12.254Z,100138.09
2023-05-12T04:08:41.949Z,100136.16
2023-05-12T04:11:10.669Z,100138.78
2023-05-12T04:13:38.436Z,100146.75
2023-05-12T04:16:08.311Z,100148.44
2023-05-12T04:18:36.996Z,100132.81
2023-05-12T04:21:05.409Z,100134.50
2023-05-12T04:23:33.611Z,100143.13
2023-05-12T04:26:04.806Z,100144.75
2023-05-12T04:28:33.069Z,100142.91
2023-05-12T04:31:04.017Z,100155.94
2023-05-12T04:33:33.816Z,100150.81
2023-05-12T04:36:01.781Z,100153.34
2023-05-12T04:38:29.700Z,100156.03
2023-05-12T04:41:01.587Z,100159.56
2023-05-12T04:46:01.765Z,100154.09
2023-05-12T04:48:29.827Z,100158.41
2023-05-12T04:50:59.994Z,100167.22
2023-05-12T04:53:28.887Z,100161.03
2023-05-12T04:55:56.742Z,100165.53
2023-05-12T04:58:25.286Z,100166.47
2023-05-12T05:00:54.089Z,100166.25
2023-05-12T05:03:22.745Z,100167.16
2023-05-12T05:05:51.150Z,100165.47
2023-05-12T05:08:20.680Z,100174.19
2023-05-12T05:10:48.461Z,100170.59
2023-05-12T05:13:16.493Z,100175.72
2023-05-12T05:15:51.023Z,100169.75
2023-05-12T05:18:20.578Z,100180.88
2023-05-12T05:20:57.268Z,100176.56
2023-05-12T05:23:28.025Z,100178.25
2023-05-12T05:25:56.244Z,100185.84
2023-05-12T05:28:24.660Z,100178.78
2023-05-12T05:30:52.659Z,100179.38
2023-05-12T05:33:20.468Z,100187.03
2023-05-12T05:35:49.037Z,100188.41
2023-05-12T05:38:17.803Z,100184.56
2023-05-12T05:40:53.665Z,100187.59
2023-05-12T05:43:22.757Z,100188.34
2023-05-12T05:45:50.773Z,100187.38
2023-05-12T05:48:20.915Z,100195.19
2023-05-12T05:50:49.045Z,100188.09
2023-05-12T05:53:18.249Z,100192.31
2023-05-12T05:55:48.609Z,100188.88
2023-05-12T05:58:16.985Z,100192.84
2023-05-12T06:00:46.544Z,100188.06
2023-05-12T06:03:14.452Z,100192.00
2023-05-12T06:05:44.100Z,100201.66
2023-05-12T06:08:13.256Z,100197.22
2023-05-12T06:10:41.172Z,100195.09
2023-05-12T06:13:12.111Z,100202.69
2023-05-12T06:15:42.849Z,100201.09
2023-05-12T06:18:13.851Z,100204.16
2023-05-12T06:20:46.416Z,100202.97
2023-05-12T06:23:17.376Z,100206.69
2023-05-12T06:25:49.486Z,100206.94
2023-05-12T06:28:18.551Z,100209.19
2023-05-12T06:30:47.051Z,100213.56
2023-05-12T06:33:14.799Z,100211.44
2023-05-12T06:35:43.183Z,100212.16
2023-05-12T06:38:10.952Z,100213.81
2023-05-12T06:40:38.674Z,100219.84
2023-05-12T06:43:06.630Z,100212.91
2023-05-12T06:45:38.088Z,100219.75
2023-05-12T06:48:09.337Z,100215.56
2023-05-12T06:50:37.496Z,100225.06
2023-05-12T06:53:06.398Z,100219.13
2023-05-12T06:55:34.162Z,100222.22
2023-05-12T06:58:01.940Z,100223.63
2023-05-12T07:00:30.411Z,100223.47
2023-05-12T07:02:59.760Z,100237.28
2023-05-12T07:05:27.968Z,100232.28
2023-05-12T07:07:55.645Z,100231.31
2023-05-12T07:10:23.331Z,100226.41
2023-05-12T07:12:50.977Z,100237.78
2023-05-12T07:15:19.775Z,100235.44
2023-05-12T07:17:47.979Z,100236.34
2023-05-12T07:20:17.968Z,100231.19
2023-05-12T07:22:46.409Z,100230.63
2023-05-12T07:25:15.981Z,100232.72
2023-05-12T07:27:43.802Z,100225.63
2023-05-12T07:30:12.861Z,100236.59
2023-05-12T07:32:40.806Z,100227.91
2023-05-12T07:35:09.205Z,100234.00
2023-05-12T07:37:38.858Z,100232.47
2023-05-12T07:40:07.752Z,100232.47
2023-05-12T07:42:35.893Z,100233.25
2023-05-12T07:45:04.198Z,100238.28
2023-05-12T07:47:32.153Z,100231.13
2023-05-12T07:49:59.855Z,100235.16
2023-05-12T07:52:28.012Z,100235.69
2023-05-12T07:54:58.706Z,100232.47
2023-05-12T07:57:26.606Z,100234.16
2023-05-12T07:59:54.524Z,100237.75
2023-05-12T08:02:22.266Z,100237.19
2023-05-12T08:04:52.316Z,100236.09
2023-05-12T08:07:20.005Z,100232.56
2023-05-12T08:09:47.686Z,100239.81
2023-05-12T08:12:16.685Z,100239.78
2023-05-12T08:14:44.432Z,100236.25
2023-05-12T08:17:12.202Z,100241.81
2023-05-12T08:19:40.025Z,100244.22
2023-05-12T08:22:07.845Z,100237.75
2023-05-12T08:24:36.006Z,100240.97
2023-05-12T08:27:03.945Z,100241.59
2023-05-12T08:29:33.004Z,100238.47
2023-05-12T08:32:01.043Z,100237.81
2023-05-12T08:34:28.909Z,100243.78
2023-05-12T08:36:56.964Z,100245.59
2023-05-12T08:39:24.801Z,100236.13
2023-05-12T08:41:57.305Z,100246.22
2023-05-12T08:44:26.437Z,100247.16
2023-05-12T08:46:58.081Z,100252.03
2023-05-12T08:49:30.410Z,100251.56
2023-05-12T08:52:00.898Z,100246.69
2023-05-12T08:54:29.909Z,100245.59
2023-05-12T08:59:29.269Z,100254.38
2023-05-12T09:02:02.304Z,100250.78
2023-05-12T09:04:30.119Z,100255.69
2023-05-12T09:06:59.688Z,100251.81
2023-05-12T09:09:30.170Z,100250.06
2023-05-12T09:12:00.727Z,100251.00
2023-05-12T09:14:31.980Z,100257.34
2023-05-12T09:17:04.328Z,100250.16
2023-05-12T09:19:32.631Z,100259.41
2023-05-12T09:22:02.137Z,100259.09
2023-05-12T09:24:39.988Z,100250.63
2023-05-12T09:27:09.051Z,100257.06
2023-05-12T09:29:42.488Z,100252.56
2023-05-12T09:32:32.815Z,100256.81
2023-05-12T09:35:05.325Z,100255.03
2023-05-12T09:37:34.357Z,100249.22
2023-05-12T09:40:02.947Z,100252.09
2023-05-12T09:42:32.357Z,100241.44
2023-05-12T09:45:02.150Z,100234.78
2023-05-12T09:47:35.719Z,100238.69
2023-05-12T09:50:04.258Z,100238.91
2023-05-12T09:52:32.997Z,100252.78
2023-05-12T09:55:09.652Z,100248.09
2023-05-12T09:57:41.158Z,100252.09
2023-05-12T10:00:21.109Z,100248.28
2023-05-12T10:03:02.206Z,100244.72
2023-05-12T10:05:32.020Z,100240.50
2023-05-12T10:08:03.077Z,100242.56
2023-05-12T10:10:30.948Z,100237.25
2023-05-12T10:12:59.706Z,100238.38
2023-05-12T10:15:28.467Z,100236.84
2023-05-12T10:17:56.439Z,100236.69
2023-05-12T10:20:26.674Z,100237.66
2023-05-12T10:22:57.108Z,100239.09
2023-05-12T10:25:24.915Z,100234.69
2023-05-12T10:27:54.283Z,100237.47
2023-05-12T10:30:23.328Z,100235.81
2023-05-12T10:32:51.277Z,100236.31
2023-05-12T10:35:19.222Z,100236.78
2023-05-12T10:37:49.468Z,100240.38
2023-05-12T10:40:24.929Z,100239.63
2023-05-12T10:42:52.833Z,100235.09
2023-05-12T10:45:22.103Z,100236.19
2023-05-12T10:47:50.564Z,100237.78
2023-05-12T10:50:28.055Z,100229.38
2023-05-12T10:52:57.878Z,100225.06
2023-05-12T10:55:32.888Z,100232.00
2023-05-12T10:58:12.090Z,100234.53
2023-05-12T11:00:47.943Z,100228.47
2023-05-12T11:03:19.936Z,100230.94
2023-05-12T11:05:59.104Z,100224.16
2023-05-12T11:08:28.823Z,100233.06
2023-05-12T11:10:59.248Z,100239.66
2023-05-12T11:13:27.897Z,100233.88
2023-05-12T11:15:57.772Z,100237.84
2023-05-12T11:18:25.813Z,100243.59
2023-05-12T11:20:53.631Z,100248.78
2023-05-12T11:23:31.509Z,100236.03
2023-05-12T11:25:59.326Z,100242.41
2023-05-12T11:28:27.103Z,100244.22
2023-05-12T11:30:55.814Z,100243.00
2023-05-12T11:33:24.329Z,100238.19
2023-05-12T11:35:52.840Z,100243.09
2023-05-12T11:38:24.284Z,100238.38
2023-05-12T11:40:53.674Z,100232.75
2023-05-12T11:43:22.682Z,100227.94
2023-05-12T11:45:50.756Z,100221.22
2023-05-12T11:48:18.644Z,100227.81
2023-05-12T11:50:47.830Z,100230.53
2023-05-12T11:53:17.611Z,100233.78
2023-05-12T11:55:49.593Z,100230.72
2023-05-12T11:58:22.757Z,100239.41
2023-05-12T12:00:56.809Z,100238.16
2023-05-12T12:03:25.849Z,100242.66
2023-05-12T12:06:01.223Z,100257.59
2023-05-12T12:08:29.745Z,100262.19
2023-05-12T12:11:02.805Z,100258.53
2023-05-12T12:13:33.262Z,100263.84
2023-05-12T12:16:01.325Z,100264.97
2023-05-12T12:18:29.111Z,100264.63
2023-05-12T12:20:58.413Z,100266.06
2023-05-12T12:23:26.044Z,100269.09
2023-05-12T12:25:53.776Z,100256.19
2023-05-12T12:28:21.754Z,100264.59
2023-05-12T12:30:50.885Z,100266.63
2023-05-12T12:33:20.482Z,100265.13
2023-05-12T12:35:48.845Z,100263.78
2023-05-12T12:38:17.026Z,100259.06
2023-05-12T12:40:45.510Z,100266.72
2023-05-12T12:43:13.802Z,100270.00
2023-05-12T12:45:41.539Z,100266.13
2023-05-12T12:48:10.767Z,100264.41
2023-05-12T12:50:38.609Z,100271.19
2023-05-12T12:53:06.857Z,100273.50
2023-05-12T12:55:34.816Z,100272.16
2023-05-12T12:58:02.717Z,100277.81
2023-05-12T13:00:30.506Z,100280.31
2023-05-12T13:02:58.780Z,100280.31
2023-05-12T13:05:27.846Z,100276.81
2023-05-12T13:07:55.609Z,100278.47
2023-05-12T13:10:23.268Z,100284.50
2023-05-12T13:12:51.810Z,100294.03
2023-05-12T13:15:19.881Z,100294.34
2023-05-12T13:17:47.725Z,100292.47
2023-05-12T13:20:19.615Z,100294.75
2023-05-12T13:22:49.009Z,100291.09
2023-05-12T13:25:16.992Z,100290.44
2023-05-12T13:27:44.744Z,100296.16
2023-05-12T13:30:14.090Z,100300.44
2023-05-12T13:32:42.199Z,100293.22
2023-05-12T13:35:10.653Z,100298.38
2023-05-12T13:37:38.462Z,100290.03
2023-05-12T13:40:09.594Z,100288.16
2023-05-12T13:42:37.805Z,100286.59
2023-05-12T13:45:06.844Z,100290.41
2023-05-12T13:47:35.012Z,100289.94
2023-05-12T13:50:02.941Z,100287.47
2023-05-12T13:52:30.787Z,100286.31
2023-05-12T13:54:58.558Z,100278.41
2023-05-12T13:57:27.698Z,100286.00
2023-05-12T13:59:57.947Z,100282.19
2023-05-12T14:02:25.631Z,100283.16
2023-05-12T14:04:53.677Z,100280.38
2023-05-12T14:07:21.645Z,100291.38
2023-05-12T14:09:49.418Z,100277.34
2023-05-12T14:12:17.169Z,100281.50
2023-05-12T14:14:49.724Z,100285.19
2023-05-12T14:17:18.595Z,100280.78
2023-05-12T14:19:46.754Z,100290.94
2023-05-12T14:22:25.710Z,100278.34
2023-05-12T14:24:55.451Z,100285.50
2023-05-12T14:27:23.408Z,100288.50
2023-05-12T14:29:52.658Z,100300.69
2023-05-12T14:32:20.390Z,100301.06
2023-05-12T14:34:48.154Z,100298.34
2023-05-12T14:37:15.805Z,100299.63
2023-05-12T14:39:43.858Z,100303.69
2023-05-12T14:42:11.867Z,100303.03
2023-05-12T14:44:39.681Z,100299.88
2023-05-12T14:47:09.303Z,100295.94
2023-05-12T14:49:37.473Z,100303.53
2023-05-12T14:52:05.651Z,100300.41
2023-05-12T14:54:34.584Z,100302.50
2023-05-12T14:57:03.760Z,100311.06
2023-05-12T14:59:32.016Z,100301.13
2023-05-12T15:01:59.930Z,100300.59
2023-05-12T15:04:29.732Z,100303.66
2023-05-12T15:06:57.569Z,100292.47
2023-05-12T15:09:25.780Z,100294.91
2023-05-12T15:11:53.610Z,100295.63
2023-05-12T15:14:21.311Z,100302.84
2023-05-12T15:16:49.245Z,100297.38
2023-05-12T15:19:17.774Z,100307.50
2023-05-12T15:21:47.026Z,100318.28
2023-05-12T15:24:14.802Z,100315.69
2023-05-12T15:26:43.023Z,100319.84
2023-05-12T15:29:10.819Z,100316.59
2023-05-12T15:31:38.811Z,100315.75
2023-05-12T15:34:09.341Z,100311.84
2023-05-12T15:36:37.362Z,100312.63
2023-05-12T15:39:06.403Z,100317.16
2023-05-12T15:41:34.069Z,100316.91
2023-05-12T15:44:02.849Z,100315.97
2023-05-12T15:46:30.878Z,100314.06
2023-05-12T15:48:59.571Z,100316.81
2023-05-12T15:51:28.428Z,100317.75
2023-05-12T15:53:56.194Z,100310.00
2023-05-12T15:56:25.628Z,100314.25
2023-05-12T15:58:53.846Z,100314.13
2023-05-12T16:01:22.545Z,100310.50
2023-05-12T16:03:51.713Z,100305.59
2023-05-12T16:06:19.685Z,100314.94
2023-05-12T16:08:47.537Z,100310.16
2023-05-12T16:11:15.400Z,100310.84
2023-05-12T16:13:44.789Z,100306.84
2023-05-12T16:16:12.931Z,100302.25
2023-05-12T16:18:40.753Z,100307.19
2023-05-12T16:21:09.457Z,100301.94
2023-05-12T16:23:37.203Z,100303.50
2023-05-12T16:26:05.415Z,100300.66
2023-05-12T16:28:34.564Z,100301.72
2023-05-12T16:31:04.447Z,100303.13
2023-05-12T16:33:32.920Z,100299.53
2023-05-12T16:36:00.781Z,100304.06
2023-05-12T16:38:29.541Z,100301.44
2023-05-12T16:40:57.506Z,100305.34
2023-05-12T16:43:25.297Z,100300.91
2023-05-12T16:46:00.411Z,100303.03
2023-05-12T16:48:34.002Z,100308.56
2023-05-12T16:51:03.371Z,100300.47
2023-05-12T16:53:31.641Z,100303.59
2023-05-12T16:56:00.014Z,100303.75
2023-05-12T16:58:31.167Z,100305.63
2023-05-12T17:00:59.941Z,100303.47
2023-05-12T17:03:29.437Z,100313.72
2023-05-12T17:05:57.193Z,100316.00
2023-05-12T17:08:25.726Z,100318.13
2023-05-12T17:10:53.726Z,100324.28
2023-05-12T17:13:21.654Z,100322.81
2023-05-12T17:15:49.427Z,100328.84
2023-05-12T17:18:17.907Z,100338.34
2023-05-12T17:20:46.998Z,100336.13
2023-05-12T17:23:14.743Z,100334.03
2023-05-12T17:25:43.128Z,100350.81
2023-05-12T17:28:11.290Z,100349.31
2023-05-12T17:30:39.041Z,100352.69
2023-05-12T17:33:07.666Z,100350.81
2023-05-12T17:35:35.788Z,100355.19
2023-05-12T17:38:05.217Z,100353.72
2023-05-12T17:40:33.280Z,100349.31
2023-05-12T17:43:00.971Z,100350.81
2023-05-12T17:45:28.922Z,100355.69
2023-05-12T17:47:57.351Z,100357.72
2023-05-12T17:50:25.145Z,100352.13
2023-05-12T17:52:56.327Z,100346.41
2023-05-12T17:55:25.704Z,100342.13
2023-05-12T17:57:54.226Z,100354.47
2023-05-12T18:00:22.892Z,100357.38
2023-05-12T18:05:50.875Z,100352.97
2023-05-12T18:08:19.125Z,100358.75
2023-05-12T18:10:48.998Z,100360.38
2023-05-12T18:13:17.064Z,100369.88
2023-05-12T18:15:45.237Z,100370.91
2023-05-12T18:18:14.343Z,100368.50
2023-05-12T18:20:42.321Z,100361.00
2023-05-12T18:23:10.198Z,100370.91
2023-05-12T18:25:37.988Z,100368.09
2023-05-12T18:28:07.694Z,100365.97
2023-05-12T18:30:35.611Z,100368.03
2023-05-12T18:33:03.817Z,100372.22
2023-05-12T18:35:32.357Z,100381.50
2023-05-12T18:37:59.982Z,100377.47
2023-05-12T18:40:27.858Z,100379.41
2023-05-12T18:42:55.586Z,100378.47
2023-05-12T18:45:25.285Z,100392.28
2023-05-12T18:47:53.036Z,100391.44
2023-05-12T18:50:20.773Z,100391.50
2023-05-12T18:52:48.584Z,100398.19
2023-05-12T18:55:16.296Z,100404.97
2023-05-12T18:57:44.271Z,100406.00
2023-05-12T19:00:13.546Z,100413.00
2023-05-12T19:02:43.326Z,100411.84
2023-05-12T19:05:11.253Z,100418.88
2023-05-12T19:07:38.908Z,100425.28
2023-05-12T19:10:09.976Z,100428.66
2023-05-12T19:12:37.830Z,100431.56
2023-05-12T19:15:06.514Z,100437.59
2023-05-12T19:17:34.277Z,100428.31
2023-05-12T19:20:03.449Z,100440.16
2023-05-12T19:22:31.667Z,100432.88
2023-05-12T19:25:00.753Z,100447.66
2023-05-12T19:27:28.937Z,100446.72
2023-05-12T19:29:56.857Z,100448.41
2023-05-12T19:32:24.944Z,100449.31
2023-05-12T19:34:52.977Z,100459.81
2023-05-12T19:37:22.064Z,100455.91
2023-05-12T19:39:50.138Z,100459.38
2023-05-12T19:42:17.973Z,100461.31
2023-05-12T19:44:45.667Z,100462.84
2023-05-12T19:47:14.037Z,100469.53
2023-05-12T19:49:42.168Z,100476.69
2023-05-12T19:52:10.863Z,100486.22
2023-05-12T19:54:39.867Z,100473.72
2023-05-12T19:57:08.181Z,100487.91
2023-05-12T19:59:35.984Z,100477.69
2023-05-12T20:02:04.091Z,100483.69
2023-05-12T20:04:32.029Z,100485.78
2023-05-12T20:07:00.105Z,100484.94
2023-05-12T20:09:27.876Z,100484.38
2023-05-12T20:11:57.241Z,100485.47
2023-05-12T20:14:25.056Z,100488.16
2023-05-12T20:16:53.261Z,100479.44
2023-05-12T20:19:21.790Z,100494.28
2023-05-12T20:21:49.784Z,100487.22
2023-05-12T20:24:17.495Z,100488.91
2023-05-12T20:26:45.212Z,100497.44
2023-05-12T20:29:20.694Z,100495.69
2023-05-12T20:31:48.755Z,100490.50
2023-05-12T20:34:17.497Z,100500.97
2023-05-12T20:36:45.986Z,100498.53
2023-05-12T20:39:15.206Z,100494.22
2023-05-12T20:41:44.684Z,100507.53
2023-05-12T20:44:14.071Z,100500.78
2023-05-12T20:46:41.869Z,100507.03
2023-05-12T20:49:09.602Z,100497.31
2023-05-12T20:51:37.528Z,100503.56
2023-05-12T20:54:05.860Z,100502.22
2023-05-12T20:56:34.108Z,100511.72
2023-05-12T20:59:01.860Z,100510.13
2023-05-12T21:01:31.244Z,100509.28
2023-05-12T21:03:59.016Z,100505.31
2023-05-12T21:06:27.310Z,100505.38
2023-05-12T21:08:55.023Z,100508.09
2023-05-12T21:11:22.921Z,100504.34
2023-05-12T21:13:50.816Z,100514.00
2023-05-12T21:16:18.619Z,100516.25
2023-05-12T21:18:47.740Z,100519.81
2023-05-12T21:21:16.040Z,100518.09
2023-05-12T21:23:43.726Z,100524.47
2023-05-12T21:26:12.529Z,100520.25
2023-05-12T21:28:40.220Z,100520.31
2023-05-12T21:31:07.916Z,100520.31
2023-05-12T21:33:35.560Z,100528.09
2023-05-12T21:36:05.692Z,100529.19
2023-05-12T21:38:33.335Z,100528.38
2023-05-12T21:41:01.153Z,100528.78
2023-05-12T21:43:29.119Z,100524.75
2023-05-12T21:45:56.872Z,100530.31
2023-05-12T21:48:24.894Z,100530.13
2023-05-12T21:50:59.555Z,100531.72
2023-05-12T21:53:29.654Z,100532.09
2023-05-12T21:55:57.496Z,100538.44
2023-05-12T21:58:25.407Z,100535.75
2023-05-12T22:00:53.278Z,100529.91
2023-05-12T22:03:21.891Z,100540.19
2023-05-12T22:05:49.946Z,100538.06
2023-05-12T22:08:18.435Z,100544.06
2023-05-12T22:10:47.733Z,100543.38
2023-05-12T22:13:15.713Z,100545.50
2023-05-12T22:15:43.659Z,100540.28
2023-05-12T22:18:11.431Z,100541.03
2023-05-12T22:20:39.520Z,100541.84
2023-05-12T22:23:07.227Z,100538.75
2023-05-12T22:25:35.009Z,100538.50
2023-05-12T22:28:06.519Z,100545.34
2023-05-12T22:30:35.243Z,100551.69
2023-05-12T22:33:03.041Z,100552.22
2023-05-12T22:35:30.740Z,100552.28
2023-05-12T22:37:58.550Z,100560.59
2023-05-12T22:40:27.066Z,100550.31
2023-05-12T22:42:54.732Z,100554.53
2023-05-12T22:45:25.359Z,100548.63
2023-05-12T22:47:53.552Z,100543.19
2023-05-12T22:50:21.979Z,100543.34
2023-05-12T22:52:50.043Z,100539.19
2023-05-12T22:55:17.831Z,100542.91
2023-05-12T22:57:46.040Z,100542.97
2023-05-12T23:00:15.125Z,100544.97
2023-05-12T23:02:44.811Z,100542.63
2023-05-12T23:05:12.494Z,100547.19
2023-05-12T23:07:40.226Z,100554.09
2023-05-12T23:10:09.168Z,100544.91
2023-05-12T23:12:39.455Z,100545.06
2023-05-12T23:15:08.412Z,100543.66
2023-05-12T23:17:36.530Z,100538.44
2023-05-12T23:20:22.349Z,100533.03
2023-05-12T23:22:50.393Z,100533.72
2023-05-12T23:25:18.075Z,100532.88
2023-05-12T23:27:46.206Z,100529.38
2023-05-12T23:30:14.591Z,100536.13
2023-05-12T23:32:42.528Z,100531.97
2023-05-12T23:35:11.151Z,100538.31
2023-05-12T23:37:40.343Z,100541.91
2023-05-12T23:40:09.205Z,100541.44
2023-05-12T23:42:37.363Z,100538.16
2023-05-12T23:45:09.034Z,100537.41
2023-05-12T23:47:37.577Z,100533.84
2023-05-12T23:50:06.823Z,100535.63
2023-05-12T23:52:34.697Z,100540.84
2023-05-12T23:55:04.123Z,100529.63
2023-05-12T23:57:32.175Z,100541.19
